Time;durP1;ratioP1;P1;durP2;ratioP2;P2;SDS_P1;SDS_P2;PMS_P1;PMS_P2;Temp;Humidity;BMP_temperature;BMP_pressure;BME280_temperature;BME280_humidity;BME280_pressure;Samples;Min_cycle;Max_cycle;Signal;HPM_P1;HPM_P2
2022/07/02 00:02:50;;;;;;;13.90;8.15;;;;;;;;;;10429723;28;20045;-78
2022/07/02 00:07:51;;;;;;;13.70;8.98;;;;;;;;;;10433793;28;20035;-77
2022/07/02 00:12:51;;;;;;;15.23;9.43;;;;;;;;;;10428741;28;20030;-78
2022/07/02 00:17:51;;;;;;;12.05;7.93;;;;;;;;;;10432427;28;20368;-71
2022/07/02 00:22:52;;;;;;;12.73;8.93;;;;;;;;;;10436034;28;20088;-76
2022/07/02 00:27:53;;;;;;;9.70;7.35;;;;;;;;;;10441308;28;20028;-70
2022/07/02 00:32:53;;;;;;;14.00;8.02;;;;;;;;;;10441717;28;20111;-77
2022/07/02 00:37:54;;;;;;;12.43;7.93;;;;;;;;;;10435820;28;20790;-78
2022/07/02 00:42:54;;;;;;;12.63;8.98;;;;;;;;;;10416907;28;20621;-73
2022/07/02 00:47:54;;;;;;;12.00;7.75;;;;;;;;;;10423837;28;20388;-78
2022/07/02 00:52:55;;;;;;;9.55;7.25;;;;;;;;;;10426664;28;20040;-72
2022/07/02 00:57:56;;;;;;;8.38;6.93;;;;;;;;;;10429418;28;20048;-77
2022/07/02 01:02:56;;;;;;;12.57;7.47;;;;;;;;;;10428581;28;20027;-72
2022/07/02 01:13:17;;;;;;;9.23;7.78;;;;;;;;;;10433692;28;20033;-78
2022/07/02 01:18:17;;;;;;;10.20;8.18;;;;;;;;;;10442951;28;20027;-77
2022/07/02 01:23:18;;;;;;;11.88;7.25;;;;;;;;;;10430242;28;20431;-76
2022/07/02 01:28:18;;;;;;;11.23;7.40;;;;;;;;;;10430357;28;20675;-76
2022/07/02 01:33:19;;;;;;;13.05;8.48;;;;;;;;;;10436433;28;20020;-75
2022/07/02 01:38:19;;;;;;;14.68;8.38;;;;;;;;;;10433811;28;20017;-76
2022/07/02 01:43:19;;;;;;;12.43;7.27;;;;;;;;;;10431902;28;20148;-77
2022/07/02 01:48:20;;;;;;;12.18;8.30;;;;;;;;;;10430549;28;20058;-78
2022/07/02 01:53:20;;;;;;;10.63;7.55;;;;;;;;;;10427156;28;20056;-77
2022/07/02 01:58:20;;;;;;;11.93;7.40;;;;;;;;;;10429665;28;20454;-78
2022/07/02 02:03:20;;;;;;;11.13;8.18;;;;;;;;;;10429190;28;20021;-78
2022/07/02 02:08:21;;;;;;;12.57;7.90;;;;;;;;;;10433993;28;20021;-76
2022/07/02 02:13:21;;;;;;;10.63;7.80;;;;;;;;;;10425155;28;20039;-78
2022/07/02 02:18:21;;;;;;;13.52;7.63;;;;;;;;;;10437069;28;20060;-78
2022/07/02 02:23:21;;;;;;;13.55;6.78;;;;;;;;;;10436664;28;20025;-78
2022/07/02 02:28:22;;;;;;;17.35;7.97;;;;;;;;;;10436500;28;20080;-76
2022/07/02 02:33:23;;;;;;;12.20;8.60;;;;;;;;;;10433306;28;20112;-78
2022/07/02 02:38:24;;;;;;;15.60;8.68;;;;;;;;;;10430553;28;20433;-78
2022/07/02 02:43:24;;;;;;;10.82;7.80;;;;;;;;;;10434840;28;20049;-76
2022/07/02 02:48:24;;;;;;;12.15;9.38;;;;;;;;;;10435290;28;20321;-77
2022/07/02 02:53:25;;;;;;;16.10;8.93;;;;;;;;;;10438296;28;20840;-75
2022/07/02 02:58:25;;;;;;;17.17;9.57;;;;;;;;;;10435642;28;20051;-78
2022/07/02 03:03:27;;;;;;;11.82;8.15;;;;;;;;;;10427636;28;20028;-78
2022/07/02 03:08:27;;;;;;;12.23;8.98;;;;;;;;;;10424999;28;20047;-76
2022/07/02 03:13:27;;;;;;;10.73;8.48;;;;;;;;;;10433701;28;20024;-76
2022/07/02 03:18:28;;;;;;;12.95;8.70;;;;;;;;;;10426930;28;20542;-76
2022/07/02 03:23:28;;;;;;;14.80;9.88;;;;;;;;;;10426081;28;20687;-74
2022/07/02 03:28:28;;;;;;;12.68;9.20;;;;;;;;;;10425865;28;20029;-77
2022/07/02 03:33:29;;;;;;;13.77;9.83;;;;;;;;;;10435783;28;20021;-70
2022/07/02 03:38:29;;;;;;;14.70;9.50;;;;;;;;;;10423311;28;20043;-77
2022/07/02 03:43:29;;;;;;;10.80;8.88;;;;;;;;;;10428669;28;20434;-77
2022/07/02 03:48:29;;;;;;;15.18;9.13;;;;;;;;;;10441335;28;20415;-77
2022/07/02 03:53:30;;;;;;;14.20;9.18;;;;;;;;;;10432249;28;20860;-78
2022/07/02 03:58:33;;;;;;;17.35;10.73;;;;;;;;;;10444222;28;20021;-79
2022/07/02 04:03:34;;;;;;;19.45;8.85;;;;;;;;;;10431088;28;20500;-73
2022/07/02 04:08:34;;;;;;;11.25;8.82;;;;;;;;;;10442767;28;20013;-78
2022/07/02 04:13:34;;;;;;;13.38;9.57;;;;;;;;;;10442881;28;20407;-76
2022/07/02 04:18:34;;;;;;;10.43;8.63;;;;;;;;;;10437148;28;20078;-78
2022/07/02 04:23:34;;;;;;;16.33;9.38;;;;;;;;;;10440289;28;20021;-77
2022/07/02 04:28:35;;;;;;;13.57;9.43;;;;;;;;;;10433375;28;20018;-77
2022/07/02 04:33:35;;;;;;;13.32;8.70;;;;;;;;;;10438988;28;20464;-76
2022/07/02 04:38:35;;;;;;;14.18;9.10;;;;;;;;;;10441505;28;20105;-75
2022/07/02 04:43:35;;;;;;;15.40;7.40;;;;;;;;;;10427665;28;20045;-78
2022/07/02 04:48:36;;;;;;;10.23;7.78;;;;;;;;;;10428482;28;20033;-76
2022/07/02 04:53:36;;;;;;;13.23;8.68;;;;;;;;;;10438861;28;20009;-77
2022/07/02 04:58:36;;;;;;;12.32;8.63;;;;;;;;;;10440331;28;20027;-78
2022/07/02 05:03:36;;;;;;;12.27;8.90;;;;;;;;;;10439938;28;20116;-75
2022/07/02 05:08:37;;;;;;;14.52;9.00;;;;;;;;;;10428690;28;20517;-78
2022/07/02 05:13:37;;;;;;;10.32;8.18;;;;;;;;;;10439934;28;20064;-80
2022/07/02 05:18:37;;;;;;;9.70;7.60;;;;;;;;;;10428188;28;20017;-75
2022/07/02 05:23:38;;;;;;;11.98;8.20;;;;;;;;;;10430940;28;20384;-78
2022/07/02 05:28:38;;;;;;;11.23;7.88;;;;;;;;;;10439592;28;20025;-79
2022/07/02 05:33:38;;;;;;;15.35;8.20;;;;;;;;;;10436344;28;20100;-76
2022/07/02 05:38:38;;;;;;;14.05;7.55;;;;;;;;;;10438469;28;20013;-73
2022/07/02 05:43:39;;;;;;;9.57;7.65;;;;;;;;;;10427171;28;20049;-79
2022/07/02 05:48:39;;;;;;;14.80;7.97;;;;;;;;;;10438437;28;20025;-75
2022/07/02 05:53:39;;;;;;;13.93;7.63;;;;;;;;;;10438739;28;20472;-73
2022/07/02 05:58:39;;;;;;;15.10;8.43;;;;;;;;;;10437811;28;20035;-79
2022/07/02 06:03:40;;;;;;;12.52;6.93;;;;;;;;;;10425515;28;20140;-73
2022/07/02 06:08:40;;;;;;;11.52;7.25;;;;;;;;;;10435791;28;20121;-77
2022/07/02 06:13:41;;;;;;;8.50;7.00;;;;;;;;;;10429596;28;20078;-77
2022/07/02 06:18:41;;;;;;;10.32;7.63;;;;;;;;;;10425499;28;20020;-79
2022/07/02 06:23:41;;;;;;;11.32;7.57;;;;;;;;;;10432344;28;20067;-77
2022/07/02 06:28:41;;;;;;;13.02;6.95;;;;;;;;;;10430746;28;20051;-74
2022/07/02 06:33:42;;;;;;;8.13;6.53;;;;;;;;;;10432164;28;20040;-77
2022/07/02 06:38:42;;;;;;;7.90;7.10;;;;;;;;;;10430263;28;20021;-73
2022/07/02 06:43:42;;;;;;;10.48;7.03;;;;;;;;;;10426396;28;20543;-77
2022/07/02 06:48:42;;;;;;;9.63;6.82;;;;;;;;;;10429972;28;20025;-78
2022/07/02 06:53:43;;;;;;;9.13;7.13;;;;;;;;;;10430555;28;20040;-78
2022/07/02 06:58:43;;;;;;;9.88;6.22;;;;;;;;;;10430066;28;20024;-78
2022/07/02 07:03:43;;;;;;;15.75;9.02;;;;;;;;;;10432091;28;20029;-77
2022/07/02 07:08:43;;;;;;;14.40;6.68;;;;;;;;;;10427988;28;20025;-77
2022/07/02 07:13:44;;;;;;;17.63;6.25;;;;;;;;;;10428945;28;20047;-73
2022/07/02 07:18:47;;;;;;;9.68;6.82;;;;;;;;;;10434498;28;20415;-77
2022/07/02 07:23:48;;;;;;;10.15;6.97;;;;;;;;;;10438534;28;20102;-78
2022/07/02 07:28:48;;;;;;;14.80;6.85;;;;;;;;;;10436919;28;20025;-77
2022/07/02 07:33:49;;;;;;;7.88;5.60;;;;;;;;;;10437233;28;20107;-71
2022/07/02 07:38:50;;;;;;;10.15;6.25;;;;;;;;;;10440271;28;20430;-76
2022/07/02 07:43:52;;;;;;;9.98;5.65;;;;;;;;;;10435706;28;20568;-75
2022/07/02 07:48:52;;;;;;;15.02;6.13;;;;;;;;;;10434887;28;20491;-76
2022/07/02 07:53:52;;;;;;;8.70;5.70;;;;;;;;;;10434227;28;20025;-77
2022/07/02 07:58:52;;;;;;;9.43;5.80;;;;;;;;;;10435784;28;20024;-76
2022/07/02 08:03:53;;;;;;;6.05;4.85;;;;;;;;;;10433838;28;20039;-78
2022/07/02 08:08:53;;;;;;;9.65;5.78;;;;;;;;;;10423231;28;20454;-77
2022/07/02 08:13:54;;;;;;;17.40;6.10;;;;;;;;;;10427364;28;20585;-77
2022/07/02 08:18:54;;;;;;;8.98;5.38;;;;;;;;;;10429124;28;20028;-77
2022/07/02 08:23:54;;;;;;;10.77;5.68;;;;;;;;;;10433543;28;20031;-78
2022/07/02 08:28:54;;;;;;;7.38;5.72;;;;;;;;;;10428949;28;20029;-74
2022/07/02 08:33:55;;;;;;;13.57;6.55;;;;;;;;;;10432931;28;20055;-77
2022/07/02 08:38:55;;;;;;;12.93;6.30;;;;;;;;;;10435828;28;20036;-79
2022/07/02 08:44:03;;;;;;;8.73;5.60;;;;;;;;;;10434944;28;20532;-75
2022/07/02 08:49:03;;;;;;;7.63;5.10;;;;;;;;;;10427998;28;20517;-74
2022/07/02 08:54:03;;;;;;;11.00;5.60;;;;;;;;;;10432008;28;20040;-73
2022/07/02 08:59:03;;;;;;;8.17;4.30;;;;;;;;;;10436088;28;20107;-73
2022/07/02 09:04:04;;;;;;;5.18;4.00;;;;;;;;;;10431106;28;20028;-72
2022/07/02 09:09:05;;;;;;;7.50;3.50;;;;;;;;;;10434724;28;20039;-77
2022/07/02 09:14:06;;;;;;;5.97;3.97;;;;;;;;;;10432579;28;20028;-77
2022/07/02 09:19:07;;;;;;;7.10;4.10;;;;;;;;;;10430794;28;20025;-76
2022/07/02 09:24:07;;;;;;;5.50;3.33;;;;;;;;;;10431765;28;20056;-78
2022/07/02 09:29:07;;;;;;;4.87;3.17;;;;;;;;;;10433531;28;20354;-77
2022/07/02 09:34:07;;;;;;;12.32;4.20;;;;;;;;;;10431042;28;20028;-75
2022/07/02 09:39:08;;;;;;;7.53;2.95;;;;;;;;;;10431283;28;20025;-78
2022/07/02 09:44:11;;;;;;;10.80;3.45;;;;;;;;;;10431825;28;20430;-81
2022/07/02 09:49:12;;;;;;;10.07;3.40;;;;;;;;;;10430102;28;20053;-77
2022/07/02 09:54:17;;;;;;;8.57;3.85;;;;;;;;;;10431976;28;20066;-77
2022/07/02 09:59:17;;;;;;;6.82;3.03;;;;;;;;;;10431178;28;20045;-77
2022/07/02 10:04:27;;;;;;;7.28;3.33;;;;;;;;;;10429595;28;20121;-75
2022/07/02 10:09:28;;;;;;;6.97;3.70;;;;;;;;;;10427723;28;20159;-72
2022/07/02 10:14:28;;;;;;;10.67;3.23;;;;;;;;;;10426579;28;20020;-77
2022/07/02 10:19:30;;;;;;;9.30;3.53;;;;;;;;;;10431483;28;20017;-76
2022/07/02 10:24:30;;;;;;;10.77;3.70;;;;;;;;;;10427987;28;20025;-76
2022/07/02 10:29:31;;;;;;;3.92;3.15;;;;;;;;;;10431128;28;20514;-77
2022/07/02 10:34:42;;;;;;;7.68;3.28;;;;;;;;;;10428617;28;20056;-78
2022/07/02 10:39:42;;;;;;;7.65;3.45;;;;;;;;;;10429282;28;20028;-78
2022/07/02 10:44:44;;;;;;;4.80;3.15;;;;;;;;;;10428485;28;20594;-75
2022/07/02 10:49:44;;;;;;;4.10;3.00;;;;;;;;;;10430033;28;20024;-76
2022/07/02 10:54:45;;;;;;;6.57;3.20;;;;;;;;;;10436595;28;20054;-79
2022/07/02 10:59:45;;;;;;;8.38;3.83;;;;;;;;;;10437131;28;20454;-77
2022/07/02 11:04:45;;;;;;;7.07;3.95;;;;;;;;;;10437465;28;20498;-78
2022/07/02 11:09:50;;;;;;;8.07;4.85;;;;;;;;;;10435890;28;20025;-75
2022/07/02 11:14:52;;;;;;;4.82;4.28;;;;;;;;;;10435953;28;20074;-78
2022/07/02 11:19:56;;;;;;;15.95;4.93;;;;;;;;;;10437953;28;20036;-78
2022/07/02 11:24:57;;;;;;;12.90;4.47;;;;;;;;;;10436156;28;20028;-76
2022/07/02 11:29:57;;;;;;;8.20;4.80;;;;;;;;;;10436339;28;20495;-77
2022/07/02 11:34:58;;;;;;;10.87;6.63;;;;;;;;;;10434999;28;20033;-72
2022/07/02 11:39:59;;;;;;;11.13;6.05;;;;;;;;;;10431572;28;20114;-77
2022/07/02 11:44:59;;;;;;;10.50;5.82;;;;;;;;;;10436578;28;20250;-77
2022/07/02 11:50:00;;;;;;;6.35;5.65;;;;;;;;;;10434873;28;20017;-77
2022/07/02 11:55:02;;;;;;;8.90;5.28;;;;;;;;;;10434033;28;20064;-79
2022/07/02 12:00:02;;;;;;;9.70;5.85;;;;;;;;;;10430982;28;20788;-77
2022/07/02 12:05:12;;;;;;;11.10;4.90;;;;;;;;;;10432047;28;20096;-77
2022/07/02 12:10:15;;;;;;;9.70;5.30;;;;;;;;;;10430558;28;20024;-78
2022/07/02 12:15:16;;;;;;;8.45;6.13;;;;;;;;;;10433924;28;20032;-80
2022/07/02 12:20:17;;;;;;;13.82;6.45;;;;;;;;;;10431582;28;20021;-76
2022/07/02 12:25:18;;;;;;;12.57;6.47;;;;;;;;;;10428628;28;22163;-78
2022/07/02 12:30:18;;;;;;;11.73;6.40;;;;;;;;;;10433253;28;20632;-76
2022/07/02 12:35:18;;;;;;;13.55;6.72;;;;;;;;;;10431684;28;20032;-75
2022/07/02 12:40:19;;;;;;;12.80;6.47;;;;;;;;;;10431881;28;20664;-76
2022/07/02 12:45:26;;;;;;;9.70;6.30;;;;;;;;;;10435775;28;20033;-77
2022/07/02 12:50:27;;;;;;;10.52;6.80;;;;;;;;;;10431899;28;20066;-76
2022/07/02 12:55:27;;;;;;;10.95;6.22;;;;;;;;;;10431821;28;20548;-77
2022/07/02 13:00:28;;;;;;;11.90;6.72;;;;;;;;;;10431480;28;20025;-79
2022/07/02 13:05:29;;;;;;;12.25;6.68;;;;;;;;;;10430117;28;20387;-77
2022/07/02 13:10:30;;;;;;;15.38;5.80;;;;;;;;;;10429202;28;20025;-72
2022/07/02 13:15:30;;;;;;;14.10;6.80;;;;;;;;;;10433406;28;20079;-76
2022/07/02 13:20:30;;;;;;;12.13;5.83;;;;;;;;;;10429594;28;20021;-77
2022/07/02 13:25:31;;;;;;;10.25;5.82;;;;;;;;;;10430755;28;20056;-78
2022/07/02 13:30:31;;;;;;;7.20;5.17;;;;;;;;;;10431348;28;20020;-78
2022/07/02 13:35:32;;;;;;;6.50;5.65;;;;;;;;;;10431349;28;20452;-78
2022/07/02 13:40:32;;;;;;;12.82;6.97;;;;;;;;;;10427186;28;20050;-73
2022/07/02 13:45:32;;;;;;;11.32;5.35;;;;;;;;;;10430866;28;20025;-77
2022/07/02 13:50:32;;;;;;;8.27;4.55;;;;;;;;;;10425919;28;20025;-76
2022/07/02 13:55:33;;;;;;;13.67;6.60;;;;;;;;;;10430974;28;20013;-76
2022/07/02 14:00:33;;;;;;;12.75;7.10;;;;;;;;;;10428488;28;20031;-75
2022/07/02 14:05:33;;;;;;;9.05;6.57;;;;;;;;;;10433224;28;20067;-77
2022/07/02 14:10:33;;;;;;;12.63;7.82;;;;;;;;;;10426085;28;20419;-77
2022/07/02 14:15:34;;;;;;;11.23;8.13;;;;;;;;;;10430017;28;20020;-76
2022/07/02 14:20:34;;;;;;;12.63;7.28;;;;;;;;;;10428806;28;20051;-76
2022/07/02 14:25:34;;;;;;;13.95;7.90;;;;;;;;;;10430897;28;20439;-77
2022/07/02 14:30:35;;;;;;;17.33;7.43;;;;;;;;;;10424661;28;20028;-77
2022/07/02 14:35:35;;;;;;;14.52;8.07;;;;;;;;;;10429582;28;21020;-77
2022/07/02 14:40:35;;;;;;;14.48;8.30;;;;;;;;;;10428982;28;20025;-77
2022/07/02 14:45:35;;;;;;;16.63;7.70;;;;;;;;;;10428400;28;20086;-76
2022/07/02 14:50:36;;;;;;;9.75;7.53;;;;;;;;;;10429004;28;20021;-76
2022/07/02 14:55:36;;;;;;;11.70;7.10;;;;;;;;;;10427030;28;20056;-78
2022/07/02 15:00:36;;;;;;;16.08;8.35;;;;;;;;;;10429824;28;20093;-77
2022/07/02 15:05:36;;;;;;;15.55;7.32;;;;;;;;;;10427263;28;20018;-77
2022/07/02 15:10:37;;;;;;;12.07;7.70;;;;;;;;;;10426162;28;20017;-76
2022/07/02 15:20:58;;;;;;;11.38;7.88;;;;;;;;;;10428095;28;20480;-78
2022/07/02 15:25:58;;;;;;;12.50;7.22;;;;;;;;;;10428929;28;20025;-77
2022/07/02 15:30:59;;;;;;;10.30;6.22;;;;;;;;;;10427306;28;20032;-76
2022/07/02 15:36:00;;;;;;;9.82;6.70;;;;;;;;;;10427610;28;20025;-76
2022/07/02 15:41:00;;;;;;;10.97;7.77;;;;;;;;;;10435681;28;20045;-77
2022/07/02 15:46:00;;;;;;;8.53;6.30;;;;;;;;;;10435445;28;20291;-74
2022/07/02 15:51:04;;;;;;;14.25;8.93;;;;;;;;;;10433066;28;20024;-76
2022/07/02 15:56:05;;;;;;;13.93;7.32;;;;;;;;;;10432213;28;20032;-75
2022/07/02 16:01:07;;;;;;;18.58;9.07;;;;;;;;;;10434044;28;20708;-75
2022/07/02 16:06:07;;;;;;;12.43;8.55;;;;;;;;;;10433521;28;20723;-80
2022/07/02 16:11:07;;;;;;;13.68;7.40;;;;;;;;;;10435087;28;20087;-77
2022/07/02 16:16:09;;;;;;;20.98;8.52;;;;;;;;;;10429659;28;20083;-76
2022/07/02 16:21:10;;;;;;;16.90;9.35;;;;;;;;;;10433907;28;20646;-76
2022/07/02 16:26:13;;;;;;;12.85;7.28;;;;;;;;;;10433605;28;20021;-76
2022/07/02 16:31:19;;;;;;;10.27;7.32;;;;;;;;;;10457421;23;20110;-72
2022/07/02 16:36:21;;;;;;;11.43;7.32;;;;;;;;;;10431331;28;20025;-75
2022/07/02 16:41:24;;;;;;;13.90;7.93;;;;;;;;;;10418615;28;20021;-72
2022/07/02 16:46:25;;;;;;;15.07;7.70;;;;;;;;;;10422899;28;20099;-76
2022/07/02 16:51:27;;;;;;;13.35;8.00;;;;;;;;;;10415894;28;20104;-76
2022/07/02 16:56:27;;;;;;;17.30;8.93;;;;;;;;;;10423295;28;20450;-76
2022/07/02 17:01:28;;;;;;;16.55;9.00;;;;;;;;;;10418925;28;20021;-77
2022/07/02 17:06:28;;;;;;;12.35;7.93;;;;;;;;;;10412826;28;20507;-76
2022/07/02 17:11:29;;;;;;;11.38;7.68;;;;;;;;;;10417079;28;20108;-75
2022/07/02 17:16:30;;;;;;;14.57;8.70;;;;;;;;;;10427695;28;20074;-78
2022/07/02 17:21:31;;;;;;;15.43;10.25;;;;;;;;;;10440674;28;20025;-77
2022/07/02 17:26:31;;;;;;;13.57;9.27;;;;;;;;;;10428071;28;20029;-76
2022/07/02 17:31:32;;;;;;;16.00;10.93;;;;;;;;;;10428813;28;20044;-74
2022/07/02 17:36:33;;;;;;;18.77;11.38;;;;;;;;;;10411901;28;20495;-75
2022/07/02 17:41:33;;;;;;;17.48;11.05;;;;;;;;;;10429223;28;20336;-72
2022/07/02 17:46:34;;;;;;;14.18;10.05;;;;;;;;;;10418610;28;20072;-75
2022/07/02 17:51:35;;;;;;;18.73;11.57;;;;;;;;;;10411357;28;20111;-77
2022/07/02 17:56:36;;;;;;;18.65;11.88;;;;;;;;;;10415839;28;20060;-72
2022/07/02 18:01:36;;;;;;;22.30;11.97;;;;;;;;;;10414762;28;20021;-76
2022/07/02 18:06:36;;;;;;;19.00;11.75;;;;;;;;;;10407736;28;20033;-75
2022/07/02 18:11:36;;;;;;;12.30;10.32;;;;;;;;;;10408220;28;20040;-74
2022/07/02 18:16:37;;;;;;;14.52;9.43;;;;;;;;;;10404272;28;20037;-72
2022/07/02 18:21:37;;;;;;;16.77;10.43;;;;;;;;;;10450503;22;20052;-77
2022/07/02 18:26:37;;;;;;;17.67;8.73;;;;;;;;;;10429126;28;20025;-78
2022/07/02 18:31:38;;;;;;;13.73;9.57;;;;;;;;;;10429174;28;20017;-71
2022/07/02 18:36:38;;;;;;;17.80;9.43;;;;;;;;;;10430325;28;20024;-74
2022/07/02 18:41:38;;;;;;;18.27;10.40;;;;;;;;;;10411577;28;20021;-75
2022/07/02 18:46:38;;;;;;;13.27;9.20;;;;;;;;;;10429032;28;20039;-75
2022/07/02 18:51:39;;;;;;;15.45;8.40;;;;;;;;;;10428041;28;20021;-75
2022/07/02 18:56:42;;;;;;;11.82;8.95;;;;;;;;;;10415436;28;20029;-78
2022/07/02 19:01:42;;;;;;;15.20;9.25;;;;;;;;;;10418583;28;20029;-76
2022/07/02 19:06:43;;;;;;;11.65;8.20;;;;;;;;;;10410834;28;20025;-76
2022/07/02 19:11:43;;;;;;;14.80;7.78;;;;;;;;;;10412951;28;20033;-69
2022/07/02 19:16:43;;;;;;;10.60;8.25;;;;;;;;;;10419362;28;20025;-75
2022/07/02 19:21:44;;;;;;;13.10;8.43;;;;;;;;;;10414959;28;20511;-76
2022/07/02 19:32:03;;;;;;;10.15;8.23;;;;;;;;;;10425127;28;20056;-77
2022/07/02 19:37:04;;;;;;;18.80;8.02;;;;;;;;;;10431212;28;20473;-69
2022/07/02 19:42:04;;;;;;;15.15;8.45;;;;;;;;;;10435753;28;20017;-75
2022/07/02 19:47:05;;;;;;;14.20;9.27;;;;;;;;;;10424912;28;20524;-76
2022/07/02 19:52:06;;;;;;;15.70;9.25;;;;;;;;;;10427520;28;20020;-76
2022/07/02 19:57:07;;;;;;;13.45;8.43;;;;;;;;;;10437914;28;20025;-76
2022/07/02 20:02:07;;;;;;;11.75;8.65;;;;;;;;;;10433686;28;20177;-77
2022/07/02 20:07:07;;;;;;;11.88;8.00;;;;;;;;;;10433248;28;20108;-77
2022/07/02 20:12:08;;;;;;;14.10;9.90;;;;;;;;;;10434680;28;20048;-73
2022/07/02 20:17:09;;;;;;;18.67;9.32;;;;;;;;;;10439594;28;20025;-76
2022/07/02 20:22:09;;;;;;;16.00;9.93;;;;;;;;;;10438333;28;20130;-72
2022/07/02 20:27:09;;;;;;;15.20;9.90;;;;;;;;;;10438734;28;20025;-75
2022/07/02 20:32:10;;;;;;;17.00;10.40;;;;;;;;;;10437850;28;20272;-72
2022/07/02 20:37:10;;;;;;;20.00;13.87;;;;;;;;;;10439062;28;20017;-72
2022/07/02 20:42:10;;;;;;;17.03;11.33;;;;;;;;;;10438716;28;20509;-76
2022/07/02 20:47:11;;;;;;;19.67;10.63;;;;;;;;;;10438196;28;20078;-74
2022/07/02 20:52:11;;;;;;;13.93;10.87;;;;;;;;;;10438892;28;20226;-76
2022/07/02 20:57:11;;;;;;;14.88;11.10;;;;;;;;;;10438107;28;20029;-73
2022/07/02 21:02:12;;;;;;;17.83;10.30;;;;;;;;;;10438459;28;20655;-76
2022/07/02 21:07:12;;;;;;;13.85;9.98;;;;;;;;;;10436319;28;20029;-76
2022/07/02 21:12:12;;;;;;;12.07;10.30;;;;;;;;;;10437817;28;20041;-75
2022/07/02 21:17:12;;;;;;;14.85;11.00;;;;;;;;;;10437013;28;20020;-72
2022/07/02 21:22:13;;;;;;;11.65;9.90;;;;;;;;;;10437861;28;20072;-75
2022/07/02 21:27:13;;;;;;;20.45;11.77;;;;;;;;;;10436889;28;20028;-70
2022/07/02 21:32:13;;;;;;;13.38;10.95;;;;;;;;;;10437267;28;20420;-75
2022/07/02 21:37:16;;;;;;;14.02;10.00;;;;;;;;;;10435099;28;20043;-71
2022/07/02 21:42:16;;;;;;;16.45;12.65;;;;;;;;;;10436525;28;20048;-71
2022/07/02 21:47:17;;;;;;;15.90;10.32;;;;;;;;;;10436187;28;20139;-75
2022/07/02 21:52:17;;;;;;;12.02;9.75;;;;;;;;;;10436848;28;20482;-75
2022/07/02 21:57:17;;;;;;;11.75;9.98;;;;;;;;;;10435924;28;20063;-75
2022/07/02 22:02:18;;;;;;;13.60;9.65;;;;;;;;;;10436351;28;20150;-75
2022/07/02 22:07:18;;;;;;;11.87;10.10;;;;;;;;;;10435965;28;20714;-72
2022/07/02 22:12:18;;;;;;;16.67;10.40;;;;;;;;;;10436782;28;20060;-76
2022/07/02 22:17:19;;;;;;;12.00;8.53;;;;;;;;;;10435223;28;20028;-77
2022/07/02 22:22:19;;;;;;;14.43;9.05;;;;;;;;;;10434099;28;20628;-76
2022/07/02 22:27:19;;;;;;;12.02;9.85;;;;;;;;;;10436647;28;20418;-75
2022/07/02 22:32:19;;;;;;;11.52;9.80;;;;;;;;;;10435725;28;20465;-77
2022/07/02 22:37:19;;;;;;;12.57;9.93;;;;;;;;;;10435363;28;20025;-80
2022/07/02 22:42:20;;;;;;;14.23;10.00;;;;;;;;;;10435019;28;20035;-74
2022/07/02 22:47:20;;;;;;;12.90;10.18;;;;;;;;;;10439406;28;20052;-78
2022/07/02 22:52:20;;;;;;;12.25;9.55;;;;;;;;;;10449033;28;20079;-73
2022/07/02 22:57:20;;;;;;;15.07;10.02;;;;;;;;;;10447631;28;20388;-74
2022/07/02 23:02:21;;;;;;;14.20;10.17;;;;;;;;;;10448837;28;20016;-77
2022/07/02 23:07:21;;;;;;;13.15;10.65;;;;;;;;;;10450152;28;20032;-75
2022/07/02 23:12:21;;;;;;;16.93;11.10;;;;;;;;;;10448826;28;20119;-77
2022/07/02 23:17:22;;;;;;;13.85;10.52;;;;;;;;;;10448204;28;20499;-72
2022/07/02 23:22:24;;;;;;;15.70;9.43;;;;;;;;;;10446102;28;20661;-76
2022/07/02 23:27:24;;;;;;;13.93;9.15;;;;;;;;;;10441040;28;20075;-76
2022/07/02 23:32:24;;;;;;;11.88;8.68;;;;;;;;;;10437152;28;20032;-75
2022/07/02 23:37:25;;;;;;;15.38;8.30;;;;;;;;;;10447356;28;20025;-76
2022/07/02 23:42:25;;;;;;;10.05;8.18;;;;;;;;;;10447352;28;20610;-76
2022/07/02 23:47:25;;;;;;;11.23;9.30;;;;;;;;;;10447431;28;20094;-72
2022/07/02 23:52:26;;;;;;;10.95;8.75;;;;;;;;;;10446810;28;20578;-71
2022/07/02 23:57:26;;;;;;;12.07;8.10;;;;;;;;;;10447349;28;20052;-75
